createdAt,value
2018-11-20T00:00:59.320Z,30.57
2018-11-20T00:03:53.948Z,29.97
2018-11-20T00:06:58.858Z,26.37
2018-11-20T00:10:00.562Z,28.00
2018-11-20T00:13:06.344Z,28.80
2018-11-20T00:16:00.862Z,26.17
2018-11-20T00:18:55.924Z,29.97
2018-11-20T00:21:45.117Z,26.93
2018-11-20T00:24:42.918Z,26.60
2018-11-20T00:27:36.050Z,29.40
2018-11-20T00:30:53.306Z,27.87
2018-11-20T00:33:50.739Z,25.93
2018-11-20T00:37:05.262Z,31.23
2018-11-20T00:40:02.345Z,31.73
2018-11-20T00:43:03.154Z,29.17
2018-11-20T00:45:58.191Z,27.63
2018-11-20T00:49:03.593Z,30.00
2018-11-20T00:52:16.595Z,28.17
2018-11-20T00:55:29.741Z,31.25
2018-11-20T00:58:32.257Z,29.60
2018-11-20T01:01:43.499Z,30.03
2018-11-20T01:04:47.717Z,28.57
2018-11-20T01:07:51.633Z,25.87
2018-11-20T01:10:41.964Z,27.50
2018-11-20T01:13:40.315Z,28.60
2018-11-20T01:16:44.865Z,27.87
2018-11-20T01:19:42.656Z,27.57
2018-11-20T01:22:34.793Z,30.83
2018-11-20T01:25:46.840Z,27.83
2018-11-20T01:31:24.228Z,24.50
2018-11-20T01:36:54.840Z,24.13
2018-11-20T01:39:46.959Z,28.47
2018-11-20T01:42:49.437Z,25.00
2018-11-20T01:45:41.977Z,27.10
2018-11-20T01:48:59.857Z,24.40
2018-11-20T01:51:53.145Z,24.87
2018-11-20T01:57:50.268Z,23.03
2018-11-20T02:00:50.492Z,24.83
2018-11-20T02:04:08.813Z,27.27
2018-11-20T02:07:13.940Z,27.43
2018-11-20T02:10:19.136Z,24.67
2018-11-20T02:13:16.463Z,26.67
2018-11-20T02:16:15.489Z,29.30
2018-11-20T02:18:52.755Z,25.13
2018-11-20T02:25:00.778Z,27.13
2018-11-20T02:30:26.903Z,26.27
2018-11-20T02:33:26.191Z,26.93
2018-11-20T02:36:46.977Z,26.97
2018-11-20T02:39:51.442Z,27.37
2018-11-20T02:42:53.543Z,23.90
2018-11-20T02:45:55.480Z,28.67
2018-11-20T02:49:06.392Z,24.07
2018-11-20T02:52:03.329Z,28.17
2018-11-20T02:55:14.546Z,26.73
2018-11-20T02:58:08.453Z,28.10
2018-11-20T03:01:04.821Z,24.70
2018-11-20T03:04:13.273Z,26.33
2018-11-20T03:07:19.476Z,26.43
2018-11-20T03:10:18.652Z,26.80
2018-11-20T03:13:20.024Z,26.23
2018-11-20T03:16:28.854Z,28.43
2018-11-20T03:19:26.046Z,28.20
2018-11-20T03:22:23.812Z,25.80
2018-11-20T03:25:25.815Z,27.37
2018-11-20T03:28:33.354Z,25.17
2018-11-20T03:31:25.407Z,28.07
2018-11-20T03:34:22.600Z,25.90
2018-11-20T03:37:22.818Z,26.93
2018-11-20T03:40:12.331Z,28.00
2018-11-20T03:46:26.026Z,28.10
2018-11-20T03:54:52.459Z,25.13
2018-11-20T03:57:45.400Z,27.03
2018-11-20T04:00:27.935Z,31.03
2018-11-20T04:03:34.143Z,25.90
2018-11-20T04:06:17.579Z,26.27
2018-11-20T04:09:20.054Z,25.90
2018-11-20T04:12:11.539Z,24.73
2018-11-20T04:15:23.250Z,26.20
2018-11-20T04:18:28.699Z,26.10
2018-11-20T04:23:54.295Z,27.50
2018-11-20T04:26:45.905Z,26.83
2018-11-20T04:29:26.941Z,29.57
2018-11-20T04:32:36.558Z,27.17
2018-11-20T04:35:29.006Z,28.23
2018-11-20T04:38:36.213Z,30.83
2018-11-20T04:41:20.768Z,27.13
2018-11-20T04:44:22.841Z,27.77
2018-11-20T04:47:05.209Z,26.30
2018-11-20T04:59:56.685Z,27.77
2018-11-20T05:02:39.379Z,29.17
2018-11-20T05:05:42.291Z,28.77
2018-11-20T05:08:36.246Z,26.00
2018-11-20T05:11:48.242Z,27.17
2018-11-20T05:14:30.675Z,31.80
2018-11-20T05:20:18.927Z,28.60
2018-11-20T05:22:57.506Z,29.77
2018-11-20T05:26:09.256Z,28.17
2018-11-20T05:32:03.575Z,29.73
2018-11-20T05:35:14.631Z,28.87
2018-11-20T05:40:53.652Z,30.50
2018-11-20T05:46:28.977Z,28.47
2018-11-20T05:49:39.134Z,33.10
2018-11-20T05:52:29.963Z,29.40
2018-11-20T05:55:44.809Z,30.97
2018-11-20T05:58:36.041Z,29.03
2018-11-20T06:01:28.852Z,27.23
2018-11-20T06:04:21.461Z,29.87
2018-11-20T06:07:30.791Z,26.40
2018-11-20T06:13:48.965Z,31.23
2018-11-20T06:16:33.627Z,27.80
2018-11-20T06:19:28.372Z,27.07
2018-11-20T06:22:16.865Z,27.30
2018-11-20T06:28:01.757Z,28.67
2018-11-20T06:30:52.034Z,28.00
2018-11-20T06:33:34.776Z,29.57
2018-11-20T06:36:26.789Z,27.30
2018-11-20T06:39:34.021Z,31.53
2018-11-20T06:42:44.744Z,27.20
2018-11-20T06:45:38.365Z,30.30
2018-11-20T06:48:44.597Z,25.10
2018-11-20T06:51:43.695Z,26.37
2018-11-20T06:54:33.181Z,30.43
2018-11-20T06:57:42.821Z,28.30
2018-11-20T07:00:34.166Z,28.77
2018-11-20T07:03:27.530Z,28.73
2018-11-20T07:09:33.678Z,30.17
2018-11-20T07:12:26.750Z,27.00
2018-11-20T07:15:16.705Z,28.53
2018-11-20T07:18:29.625Z,29.57
2018-11-20T07:21:13.147Z,31.03
2018-11-20T07:24:22.577Z,31.43
2018-11-20T07:27:12.099Z,30.30
2018-11-20T07:30:02.346Z,27.83
2018-11-20T07:32:47.184Z,30.27
2018-11-20T07:35:38.300Z,26.13
2018-11-20T07:38:29.048Z,28.63
2018-11-20T07:41:41.896Z,26.53
2018-11-20T07:44:36.575Z,30.00
2018-11-20T07:47:28.730Z,25.77
2018-11-20T07:50:24.974Z,27.40
2018-11-20T07:56:40.096Z,27.70
2018-11-20T07:59:33.736Z,28.17
2018-11-20T08:02:23.807Z,27.73
2018-11-20T08:05:02.689Z,28.73
2018-11-20T08:08:15.629Z,29.00
2018-11-20T08:11:06.832Z,25.47
2018-11-20T08:14:21.312Z,26.20
2018-11-20T08:17:14.883Z,26.10
2018-11-20T08:20:11.623Z,25.50
2018-11-20T08:23:11.484Z,28.47
2018-11-20T08:26:03.153Z,27.93
2018-11-20T08:28:55.202Z,27.23
2018-11-20T08:31:44.135Z,26.47
2018-11-20T08:34:39.219Z,25.77
2018-11-20T08:37:45.436Z,25.93
2018-11-20T08:40:48.376Z,26.40
2018-11-20T08:43:39.323Z,27.40
2018-11-20T08:46:27.010Z,27.73
2018-11-20T08:49:11.165Z,26.60
2018-11-20T08:52:15.488Z,26.50
2018-11-20T08:55:24.914Z,29.30
2018-11-20T08:58:22.128Z,31.63
2018-11-20T09:01:31.359Z,27.20
2018-11-20T09:04:37.603Z,26.93
2018-11-20T09:07:38.414Z,30.47
2018-11-20T09:10:35.423Z,26.40
2018-11-20T09:13:37.873Z,27.87
2018-11-20T09:16:32.182Z,26.40
2018-11-20T09:19:31.179Z,24.37
2018-11-20T09:22:25.625Z,27.37
2018-11-20T09:25:17.838Z,29.00
2018-11-20T09:28:10.540Z,29.20
2018-11-20T09:31:05.059Z,26.47
2018-11-20T09:37:13.920Z,30.77
2018-11-20T09:43:26.631Z,28.90
2018-11-20T09:49:21.761Z,24.93
2018-11-20T09:52:11.062Z,30.83
2018-11-20T09:54:52.124Z,27.33
2018-11-20T09:57:47.556Z,27.10
2018-11-20T10:00:28.797Z,27.20
2018-11-20T10:03:19.518Z,25.07
2018-11-20T10:06:11.388Z,27.80
2018-11-20T10:09:03.318Z,26.10
2018-11-20T10:11:52.358Z,25.43
2018-11-20T10:14:45.627Z,29.90
2018-11-20T10:17:27.716Z,28.80
2018-11-20T10:23:39.122Z,26.90
2018-11-20T10:26:25.143Z,26.03
2018-11-20T10:29:15.054Z,28.23
2018-11-20T10:35:24.866Z,25.00
2018-11-20T10:38:14.353Z,25.13
2018-11-20T10:41:06.381Z,27.70
2018-11-20T10:43:59.275Z,27.70
2018-11-20T10:46:49.841Z,27.00
2018-11-20T10:49:41.149Z,28.13
2018-11-20T10:52:50.830Z,26.13
2018-11-20T10:55:54.571Z,24.70
2018-11-20T10:58:43.331Z,24.70
2018-11-20T11:04:33.018Z,28.87
2018-11-20T11:07:22.290Z,25.20
2018-11-20T11:09:56.913Z,27.53
2018-11-20T11:19:05.601Z,26.30
2018-11-20T11:27:58.970Z,30.43
2018-11-20T11:30:40.666Z,28.43
2018-11-20T11:33:36.628Z,26.50
2018-11-20T11:36:34.224Z,26.00
2018-11-20T11:39:21.952Z,27.87
2018-11-20T11:42:19.012Z,24.83
2018-11-20T11:49:24.405Z,25.17
2018-11-20T11:52:34.621Z,27.23
2018-11-20T11:55:31.772Z,27.47
2018-11-20T11:58:29.289Z,26.70
2018-11-20T12:01:22.939Z,26.30
2018-11-20T12:04:11.868Z,29.20
2018-11-20T12:07:03.496Z,23.87
2018-11-20T12:09:52.613Z,27.33
2018-11-20T12:12:47.275Z,26.33
2018-11-20T12:15:44.482Z,26.20
2018-11-20T12:18:44.178Z,25.03
2018-11-20T12:21:28.761Z,24.37
2018-11-20T12:24:20.209Z,24.07
2018-11-20T12:27:32.043Z,24.77
2018-11-20T12:30:16.499Z,27.50
2018-11-20T12:33:07.035Z,25.00
2018-11-20T12:35:56.588Z,25.40
2018-11-20T12:38:52.182Z,23.23
2018-11-20T12:41:46.310Z,25.23
2018-11-20T12:44:36.657Z,26.80
2018-11-20T12:47:28.655Z,24.37
2018-11-20T12:50:16.023Z,22.77
2018-11-20T12:53:10.595Z,26.40
2018-11-20T12:56:03.225Z,25.40
2018-11-20T12:58:54.704Z,25.83
2018-11-20T13:01:57.859Z,26.83
2018-11-20T13:04:51.496Z,25.80
2018-11-20T13:07:58.482Z,27.90
2018-11-20T13:10:49.571Z,25.87
2018-11-20T13:13:56.578Z,26.80
2018-11-20T13:16:42.450Z,25.13
2018-11-20T13:19:33.397Z,27.57
2018-11-20T13:22:28.696Z,25.97
2018-11-20T13:25:18.636Z,24.03
2018-11-20T13:28:28.767Z,23.67
2018-11-20T13:31:21.172Z,27.73
2018-11-20T13:34:06.891Z,26.17
2018-11-20T13:36:56.310Z,25.47
2018-11-20T13:40:07.732Z,27.93
2018-11-20T13:42:56.585Z,25.30
2018-11-20T13:45:53.034Z,29.47
2018-11-20T13:48:52.857Z,25.00
2018-11-20T13:51:45.311Z,28.87
2018-11-20T13:54:33.461Z,28.73
2018-11-20T13:57:23.684Z,27.70
2018-11-20T14:00:15.986Z,27.93
2018-11-20T14:03:26.763Z,24.00
2018-11-20T14:06:27.705Z,29.10
2018-11-20T14:09:39.178Z,26.33
2018-11-20T14:12:27.493Z,26.70
2018-11-20T14:15:17.841Z,26.33
2018-11-20T14:21:50.421Z,26.27
2018-11-20T14:24:33.545Z,26.87
2018-11-20T14:30:21.783Z,26.43
2018-11-20T14:33:15.229Z,26.67
2018-11-20T14:36:08.850Z,27.13
2018-11-20T14:38:56.286Z,26.33
2018-11-20T14:41:44.710Z,26.23
2018-11-20T14:44:37.192Z,25.10
2018-11-20T14:47:46.107Z,24.03
2018-11-20T14:50:37.197Z,27.53
2018-11-20T14:53:19.515Z,28.10
2018-11-20T14:56:24.100Z,26.23
2018-11-20T14:59:18.197Z,30.17
2018-11-20T15:02:14.167Z,30.03
2018-11-20T15:05:09.162Z,28.10
2018-11-20T15:08:05.873Z,26.83
2018-11-20T15:10:57.558Z,25.93
2018-11-20T15:16:32.779Z,28.50
2018-11-20T15:19:42.272Z,30.20
2018-11-20T15:22:33.128Z,29.50
2018-11-20T15:25:24.201Z,28.93
2018-11-20T15:28:01.443Z,32.53
2018-11-20T15:30:51.131Z,27.37
2018-11-20T15:33:48.226Z,30.83
2018-11-20T15:39:47.068Z,26.63
2018-11-20T15:42:43.143Z,28.87
2018-11-20T15:45:38.064Z,28.50
2018-11-20T15:48:28.293Z,28.87
2018-11-20T15:51:18.241Z,32.53
2018-11-20T16:03:23.239Z,26.77
2018-11-20T16:06:13.457Z,29.30
2018-11-20T16:09:05.328Z,28.77
2018-11-20T16:11:54.924Z,29.50
2018-11-20T16:14:47.685Z,25.77
2018-11-20T16:17:36.727Z,27.50
2018-11-20T16:20:27.762Z,26.70
2018-11-20T16:26:07.749Z,26.93
2018-11-20T16:29:00.970Z,31.93
2018-11-20T16:32:11.474Z,31.17
2018-11-20T16:38:12.734Z,27.30
2018-11-20T16:43:59.191Z,27.23
2018-11-20T16:47:10.965Z,32.33
2018-11-20T16:49:56.672Z,32.90
2018-11-20T16:52:56.448Z,28.13
2018-11-20T16:55:50.182Z,27.83
2018-11-20T16:58:45.688Z,33.10
2018-11-20T17:01:38.894Z,30.53
2018-11-20T17:07:37.107Z,29.07
2018-11-20T17:10:41.854Z,27.13
2018-11-20T17:13:35.101Z,27.57
2018-11-20T17:16:37.265Z,26.10
2018-11-20T17:19:19.283Z,27.30
2018-11-20T17:22:27.366Z,26.77
2018-11-20T17:25:12.023Z,24.53
2018-11-20T17:28:03.761Z,27.77
2018-11-20T17:31:13.817Z,27.87
2018-11-20T17:34:06.533Z,27.17
2018-11-20T17:37:01.201Z,28.20
2018-11-20T17:39:58.174Z,25.53
2018-11-20T17:45:55.035Z,28.33
2018-11-20T17:49:06.274Z,29.43
2018-11-20T18:00:49.534Z,28.67
2018-11-20T18:03:55.904Z,26.70
2018-11-20T18:06:44.529Z,28.03
2018-11-20T18:09:36.545Z,26.87
2018-11-20T18:12:27.861Z,31.23
2018-11-20T18:15:27.318Z,30.80
2018-11-20T18:18:24.700Z,29.83
2018-11-20T18:21:16.547Z,27.60
2018-11-20T18:24:26.783Z,28.00
2018-11-20T18:27:06.003Z,25.30
2018-11-20T18:29:58.254Z,29.60
2018-11-20T18:33:27.936Z,26.90
2018-11-20T18:39:33.627Z,31.03
2018-11-20T18:42:26.282Z,26.60
2018-11-20T18:45:40.383Z,27.77
2018-11-20T18:48:36.261Z,26.57
2018-11-20T18:51:49.999Z,28.70
2018-11-20T18:54:37.121Z,27.23
2018-11-20T18:57:28.353Z,29.60
2018-11-20T19:00:19.247Z,32.00
2018-11-20T19:03:31.844Z,31.43
2018-11-20T19:06:23.450Z,29.50
2018-11-20T19:09:14.071Z,30.70
2018-11-20T19:12:03.718Z,29.93
2018-11-20T19:17:52.256Z,30.93
2018-11-20T19:23:40.159Z,30.53
2018-11-20T19:26:31.672Z,28.47
2018-11-20T19:29:21.971Z,27.00
2018-11-20T19:35:31.183Z,30.17
2018-11-20T19:38:31.304Z,27.67
2018-11-20T19:41:14.595Z,27.40
2018-11-20T19:44:15.892Z,27.73
2018-11-20T19:46:58.501Z,30.63
2018-11-20T19:52:50.974Z,26.57
2018-11-20T19:55:54.226Z,31.23
2018-11-20T19:58:35.971Z,30.60
2018-11-20T20:01:50.533Z,35.85
2018-11-20T20:05:05.442Z,32.70
2018-11-20T20:08:02.435Z,32.77
2018-11-20T20:10:52.085Z,33.37
2018-11-20T20:13:57.206Z,29.97
2018-11-20T20:16:49.371Z,30.37
2018-11-20T20:19:42.031Z,29.83
2018-11-20T20:22:24.211Z,31.63
2018-11-20T20:28:19.539Z,34.63
2018-11-20T20:34:30.243Z,32.60
2018-11-20T20:39:56.887Z,31.90
2018-11-20T20:43:04.906Z,31.53
2018-11-20T20:45:51.253Z,35.97
2018-11-20T20:51:29.716Z,34.63
2018-11-20T20:54:40.980Z,35.87
2018-11-20T20:57:31.513Z,36.27
2018-11-20T21:00:27.630Z,41.83
2018-11-20T21:03:42.250Z,46.77
2018-11-20T21:06:48.715Z,34.13
2018-11-20T21:09:30.392Z,38.27
2018-11-20T21:12:21.157Z,38.27
2018-11-20T21:15:33.789Z,47.97
2018-11-20T21:18:21.945Z,48.57
2018-11-20T21:21:15.586Z,44.57
2018-11-20T21:26:47.913Z,28.93
2018-11-20T21:29:58.412Z,45.27
2018-11-20T21:32:40.033Z,41.30
2018-11-20T21:35:29.802Z,41.93
2018-11-20T21:38:12.286Z,36.80
2018-11-20T21:44:07.231Z,33.33
2018-11-20T21:46:58.375Z,32.93
2018-11-20T21:49:39.543Z,33.93
2018-11-20T21:55:37.454Z,32.57
2018-11-20T21:58:49.578Z,29.27
2018-11-20T22:01:32.035Z,29.90
2018-11-20T22:07:03.200Z,30.43
2018-11-20T22:09:53.681Z,30.40
2018-11-20T22:16:08.262Z,34.53
2018-11-20T22:18:58.478Z,36.27
2018-11-20T22:22:06.447Z,29.90
2018-11-20T22:24:48.529Z,29.47
2018-11-20T22:30:30.694Z,31.70
2018-11-20T22:35:57.184Z,28.70
2018-11-20T22:39:05.864Z,31.00
2018-11-20T22:41:47.912Z,28.37
2018-11-20T22:44:27.926Z,28.97
2018-11-20T22:50:33.698Z,29.77
2018-11-20T22:53:15.426Z,29.60
2018-11-20T22:56:19.409Z,32.45
2018-11-20T22:59:01.711Z,29.17
2018-11-20T23:04:50.730Z,31.00
2018-11-20T23:10:40.064Z,33.27
2018-11-20T23:16:07.475Z,30.03
2018-11-20T23:18:50.272Z,30.77
2018-11-20T23:21:32.778Z,28.83
2018-11-20T23:24:18.022Z,28.47
2018-11-20T23:27:00.805Z,29.87
2018-11-20T23:29:43.942Z,28.30
2018-11-20T23:32:26.580Z,28.20
2018-11-20T23:35:11.644Z,28.57
2018-11-20T23:37:53.652Z,31.20
2018-11-20T23:40:38.128Z,31.23
2018-11-20T23:43:20.725Z,35.33
2018-11-20T23:48:58.060Z,31.90
2018-11-20T23:51:42.889Z,32.13
2018-11-20T23:54:25.698Z,27.23
2018-11-20T23:57:08.384Z,33.10
